createdAt,value
2023-03-12T00:02:00.882Z,-0.10
2023-03-12T00:04:27.959Z,-0.10
2023-03-12T00:06:54.509Z,-0.20
2023-03-12T00:09:21.151Z,-0.10
2023-03-12T00:11:47.835Z,-0.10
2023-03-12T00:14:14.620Z,-0.10
2023-03-12T00:16:41.298Z,-0.20
2023-03-12T00:19:07.889Z,-0.10
2023-03-12T00:21:34.409Z,-0.10
2023-03-12T00:24:01.003Z,-0.20
2023-03-12T00:26:27.853Z,-0.20
2023-03-12T00:28:54.422Z,-0.20
2023-03-12T00:31:29.916Z,-0.30
2023-03-12T00:33:56.822Z,-0.30
2023-03-12T00:36:28.787Z,-0.30
2023-03-12T00:38:56.562Z,-0.30
2023-03-12T00:41:24.195Z,-0.30
2023-03-12T00:43:51.735Z,-0.30
2023-03-12T00:46:18.733Z,-0.20
2023-03-12T00:48:45.534Z,-0.20
2023-03-12T00:51:12.373Z,-0.10
2023-03-12T00:53:39.095Z,-0.10
2023-03-12T00:56:06.585Z,0.00
2023-03-12T00:58:33.377Z,0.00
2023-03-12T01:01:00.093Z,-0.10
2023-03-12T01:03:26.847Z,-0.10
2023-03-12T01:05:56.557Z,-0.10
2023-03-12T01:08:23.939Z,0.00
2023-03-12T01:10:51.086Z,0.00
2023-03-12T01:13:18.155Z,0.00
2023-03-12T01:15:44.832Z,0.10
2023-03-12T01:18:12.605Z,0.10
2023-03-12T01:20:40.711Z,0.20
2023-03-12T01:23:07.615Z,0.20
2023-03-12T01:25:34.682Z,0.20
2023-03-12T01:28:02.025Z,0.20
2023-03-12T01:30:29.050Z,0.20
2023-03-12T01:32:55.677Z,0.30
2023-03-12T01:35:22.307Z,0.30
2023-03-12T01:37:48.863Z,0.30
2023-03-12T01:40:25.254Z,0.20
2023-03-12T01:42:57.183Z,0.20
2023-03-12T01:46:01.711Z,0.30
2023-03-12T01:48:33.916Z,0.30
2023-03-12T01:51:01.648Z,0.20
2023-03-12T01:53:30.107Z,0.20
2023-03-12T01:55:59.719Z,0.20
2023-03-12T01:58:27.545Z,0.20
2023-03-12T02:00:55.294Z,0.30
2023-03-12T02:03:22.295Z,0.20
2023-03-12T02:05:54.568Z,0.20
2023-03-12T02:08:24.105Z,0.20
2023-03-12T02:10:51.303Z,0.20
2023-03-12T02:13:18.796Z,0.20
2023-03-12T02:15:45.623Z,0.20
2023-03-12T02:18:16.008Z,0.20
2023-03-12T02:21:17.839Z,0.20
2023-03-12T02:24:03.065Z,0.40
2023-03-12T02:26:30.561Z,0.40
2023-03-12T02:28:59.256Z,0.30
2023-03-12T02:31:29.202Z,0.40
2023-03-12T02:33:56.018Z,0.40
2023-03-12T02:36:22.740Z,0.40
2023-03-12T02:38:51.687Z,0.30
2023-03-12T02:41:21.658Z,0.20
2023-03-12T02:44:06.132Z,0.10
2023-03-12T02:46:36.175Z,0.10
2023-03-12T02:49:03.262Z,0.20
2023-03-12T02:51:30.087Z,0.30
2023-03-12T02:53:56.764Z,0.30
2023-03-12T02:56:25.456Z,0.30
2023-03-12T02:58:52.088Z,0.20
2023-03-12T03:01:19.103Z,0.30
2023-03-12T03:03:46.225Z,0.20
2023-03-12T03:06:13.460Z,0.20
2023-03-12T03:08:40.233Z,0.20
2023-03-12T03:11:07.477Z,0.30
2023-03-12T03:13:34.824Z,0.30
2023-03-12T03:16:01.983Z,0.30
2023-03-12T03:18:30.067Z,0.30
2023-03-12T03:21:02.627Z,0.30
2023-03-12T03:23:29.459Z,0.30
2023-03-12T03:25:56.490Z,0.30
2023-03-12T03:28:24.752Z,0.30
2023-03-12T03:30:58.211Z,0.40
2023-03-12T03:33:24.853Z,0.40
2023-03-12T03:35:51.567Z,0.30
2023-03-12T03:38:18.309Z,0.40
2023-03-12T03:40:45.415Z,0.40
2023-03-12T03:43:12.053Z,0.40
2023-03-12T03:45:38.679Z,0.40
2023-03-12T03:48:05.843Z,0.50
2023-03-12T03:50:32.694Z,0.50
2023-03-12T03:52:59.246Z,0.50
2023-03-12T03:55:25.856Z,0.50
2023-03-12T03:57:52.425Z,0.60
2023-03-12T04:00:19.372Z,0.60
2023-03-12T04:02:45.887Z,0.50
2023-03-12T04:05:12.525Z,0.50
2023-03-12T04:07:39.123Z,0.60
2023-03-12T04:10:06.215Z,0.60
2023-03-12T04:12:32.766Z,0.60
2023-03-12T04:14:59.335Z,0.60
2023-03-12T04:17:25.928Z,0.70
2023-03-12T04:19:52.563Z,0.60
2023-03-12T04:22:19.167Z,0.60
2023-03-12T04:24:45.916Z,0.60
2023-03-12T04:27:12.494Z,0.70
2023-03-12T04:29:40.605Z,0.70
2023-03-12T04:32:07.418Z,0.70
2023-03-12T04:34:34.280Z,0.70
2023-03-12T04:37:02.814Z,0.70
2023-03-12T04:39:29.556Z,0.70
2023-03-12T04:41:56.073Z,0.70
2023-03-12T04:44:22.819Z,0.60
2023-03-12T04:46:49.547Z,0.60
2023-03-12T04:49:16.234Z,0.60
2023-03-12T04:51:43.033Z,0.70
2023-03-12T04:54:09.678Z,0.60
2023-03-12T04:56:36.336Z,0.60
2023-03-12T04:59:02.965Z,0.50
2023-03-12T05:01:31.876Z,0.50
2023-03-12T05:03:58.910Z,0.60
2023-03-12T05:06:26.333Z,0.70
2023-03-12T05:08:52.952Z,0.80
2023-03-12T05:11:20.803Z,0.80
2023-03-12T05:13:48.255Z,0.80
2023-03-12T05:16:16.413Z,0.80
2023-03-12T05:18:43.842Z,0.80
2023-03-12T05:21:16.169Z,0.80
2023-03-12T05:23:43.531Z,0.90
2023-03-12T05:26:34.138Z,0.90
2023-03-12T05:29:01.753Z,0.90
2023-03-12T05:31:33.045Z,0.80
2023-03-12T05:34:00.517Z,0.90
2023-03-12T05:36:27.452Z,0.90
2023-03-12T05:38:54.641Z,0.90
2023-03-12T05:41:25.150Z,0.90
2023-03-12T05:43:56.563Z,0.90
2023-03-12T05:46:24.828Z,0.90
2023-03-12T05:48:51.582Z,0.90
2023-03-12T05:51:18.430Z,0.90
2023-03-12T05:53:45.357Z,1.00
2023-03-12T05:56:15.251Z,1.00
2023-03-12T05:58:42.015Z,1.00
2023-03-12T06:01:18.476Z,0.90
2023-03-12T06:03:46.589Z,1.00
2023-03-12T06:06:13.897Z,1.10
2023-03-12T06:08:41.539Z,1.10
2023-03-12T06:11:08.203Z,1.10
2023-03-12T06:13:34.807Z,1.10
2023-03-12T06:16:07.433Z,1.00
2023-03-12T06:18:34.594Z,1.00
2023-03-12T06:21:15.861Z,0.90
2023-03-12T06:23:43.524Z,1.00
2023-03-12T06:26:11.452Z,1.00
2023-03-12T06:28:38.649Z,0.90
2023-03-12T06:31:06.330Z,1.10
2023-03-12T06:33:33.550Z,1.20
2023-03-12T06:36:02.693Z,1.10
2023-03-12T06:38:29.362Z,1.10
2023-03-12T06:40:55.866Z,1.20
2023-03-12T06:43:22.805Z,1.20
2023-03-12T06:45:49.472Z,1.20
2023-03-12T06:48:16.229Z,1.20
2023-03-12T06:50:43.306Z,1.20
2023-03-12T06:53:09.978Z,1.30
2023-03-12T06:55:36.889Z,1.20
2023-03-12T06:58:04.026Z,1.20
2023-03-12T07:00:32.130Z,1.10
2023-03-12T07:02:58.800Z,1.20
2023-03-12T07:05:26.275Z,1.40
2023-03-12T07:07:55.169Z,1.50
2023-03-12T07:10:21.954Z,1.50
2023-03-12T07:12:48.734Z,1.60
2023-03-12T07:15:15.378Z,1.70
2023-03-12T07:17:41.948Z,1.80
2023-03-12T07:20:09.374Z,1.70
2023-03-12T07:22:35.933Z,1.80
2023-03-12T07:25:02.679Z,1.90
2023-03-12T07:27:29.178Z,1.90
2023-03-12T07:29:55.855Z,1.90
2023-03-12T07:32:22.615Z,1.90
2023-03-12T07:34:49.322Z,1.90
2023-03-12T07:37:15.865Z,2.00
2023-03-12T07:39:43.650Z,1.90
2023-03-12T07:42:12.552Z,2.00
2023-03-12T07:44:39.276Z,2.10
2023-03-12T07:47:22.374Z,2.10
2023-03-12T07:49:49.679Z,2.00
2023-03-12T07:52:17.995Z,2.10
2023-03-12T07:54:44.789Z,2.20
2023-03-12T07:57:11.800Z,2.30
2023-03-12T07:59:38.564Z,2.50
2023-03-12T08:02:05.400Z,2.60
2023-03-12T08:04:32.215Z,2.60
2023-03-12T08:06:58.942Z,2.60
2023-03-12T08:09:25.523Z,2.60
2023-03-12T08:11:52.216Z,2.60
2023-03-12T08:14:18.917Z,2.60
2023-03-12T08:16:45.615Z,2.60
2023-03-12T08:19:12.329Z,2.60
2023-03-12T08:21:38.965Z,2.70
2023-03-12T08:24:05.637Z,2.80
2023-03-12T08:26:32.280Z,2.80
2023-03-12T08:29:00.305Z,2.70
2023-03-12T08:31:28.859Z,2.70
2023-03-12T08:33:55.553Z,2.70
2023-03-12T08:36:22.676Z,2.80
2023-03-12T08:38:49.364Z,2.70
2023-03-12T08:41:15.961Z,2.60
2023-03-12T08:43:42.589Z,2.50
2023-03-12T08:46:12.195Z,2.50
2023-03-12T08:48:39.111Z,2.50
2023-03-12T08:51:07.369Z,2.40
2023-03-12T08:53:36.273Z,2.50
2023-03-12T08:56:03.650Z,2.60
2023-03-12T08:58:30.864Z,2.40
2023-03-12T09:00:58.229Z,2.30
2023-03-12T09:03:25.955Z,2.30
2023-03-12T09:06:13.115Z,2.40
2023-03-12T09:08:40.747Z,2.40
2023-03-12T09:11:09.014Z,2.40
2023-03-12T09:13:54.596Z,2.50
2023-03-12T09:16:22.571Z,2.60
2023-03-12T09:18:49.446Z,2.60
2023-03-12T09:21:16.099Z,2.70
2023-03-12T09:23:42.710Z,2.60
2023-03-12T09:26:11.522Z,2.50
2023-03-12T09:28:38.305Z,2.50
2023-03-12T09:31:06.093Z,2.50
2023-03-12T09:33:36.225Z,2.50
2023-03-12T09:36:03.494Z,2.60
2023-03-12T09:38:35.372Z,2.60
2023-03-12T09:41:05.208Z,2.50
2023-03-12T09:43:40.075Z,2.60
2023-03-12T09:46:14.094Z,2.70
2023-03-12T09:48:41.491Z,2.80
2023-03-12T09:51:40.322Z,2.80
2023-03-12T09:54:22.753Z,2.80
2023-03-12T09:56:52.280Z,2.90
2023-03-12T09:59:18.909Z,3.00
2023-03-12T10:01:58.174Z,3.00
2023-03-12T10:04:56.402Z,3.00
2023-03-12T10:07:42.779Z,3.00
2023-03-12T10:10:37.840Z,3.00
2023-03-12T10:13:25.670Z,3.00
2023-03-12T10:16:01.655Z,3.00
2023-03-12T10:18:50.820Z,3.10
2023-03-12T10:21:43.671Z,3.00
2023-03-12T10:24:16.126Z,3.00
2023-03-12T10:26:55.494Z,3.00
2023-03-12T10:29:26.600Z,2.90
2023-03-12T10:31:56.380Z,3.00
2023-03-12T10:34:41.080Z,3.00
2023-03-12T10:37:33.202Z,3.10
2023-03-12T10:40:00.956Z,3.10
2023-03-12T10:42:29.701Z,3.20
2023-03-12T10:45:11.699Z,3.30
2023-03-12T10:47:40.975Z,3.40
2023-03-12T10:50:22.717Z,3.40
2023-03-12T10:52:52.321Z,3.50
2023-03-12T10:55:26.442Z,3.60
2023-03-12T10:57:53.694Z,3.70
2023-03-12T11:00:24.428Z,3.80
2023-03-12T11:03:20.234Z,3.80
2023-03-12T11:05:50.006Z,3.90
2023-03-12T11:08:29.675Z,4.00
2023-03-12T11:10:58.257Z,4.10
2023-03-12T11:13:24.834Z,4.20
2023-03-12T11:15:52.847Z,4.30
2023-03-12T11:18:28.580Z,4.30
2023-03-12T11:21:15.173Z,4.30
2023-03-12T11:23:44.810Z,4.40
2023-03-12T11:26:19.232Z,4.40
2023-03-12T11:28:55.281Z,4.40
2023-03-12T11:31:28.417Z,4.50
2023-03-12T11:34:00.361Z,4.60
2023-03-12T11:36:34.021Z,4.60
2023-03-12T11:39:24.116Z,4.70
2023-03-12T11:42:00.514Z,4.80
2023-03-12T11:44:33.251Z,4.90
2023-03-12T11:47:06.068Z,5.00
2023-03-12T11:50:02.101Z,5.10
2023-03-12T11:52:53.565Z,5.10
2023-03-12T11:55:41.503Z,5.20
2023-03-12T11:58:23.686Z,5.30
2023-03-12T12:00:53.111Z,5.40
2023-03-12T12:04:04.481Z,5.40
2023-03-12T12:06:48.286Z,5.50
2023-03-12T12:09:33.890Z,5.60
2023-03-12T12:12:05.679Z,5.70
2023-03-12T12:14:41.716Z,5.70
2023-03-12T12:17:32.654Z,5.70
2023-03-12T12:20:21.959Z,5.90
2023-03-12T12:23:00.323Z,6.00
2023-03-12T12:25:46.554Z,6.10
2023-03-12T12:28:13.611Z,6.10
2023-03-12T12:30:54.725Z,6.10
2023-03-12T12:33:50.634Z,6.20
2023-03-12T12:36:21.211Z,6.50
2023-03-12T12:39:06.847Z,6.70
2023-03-12T12:41:35.706Z,6.80
2023-03-12T12:44:12.653Z,6.90
2023-03-12T12:46:52.154Z,7.00
2023-03-12T12:49:33.693Z,7.00
2023-03-12T12:52:04.732Z,7.00
2023-03-12T12:54:58.612Z,7.10
2023-03-12T12:57:42.593Z,7.20
2023-03-12T13:00:45.991Z,7.40
2023-03-12T13:03:17.603Z,7.60
2023-03-12T13:06:02.716Z,8.00
2023-03-12T13:08:39.832Z,8.20
2023-03-12T13:11:40.345Z,8.30
2023-03-12T13:14:09.694Z,8.50
2023-03-12T13:16:37.597Z,8.80
2023-03-12T13:19:13.136Z,8.50
2023-03-12T13:22:01.603Z,8.80
2023-03-12T13:24:43.544Z,8.80
2023-03-12T13:27:22.038Z,8.80
2023-03-12T13:29:55.158Z,8.50
2023-03-12T13:32:39.025Z,8.30
2023-03-12T13:35:35.874Z,8.30
2023-03-12T13:38:05.618Z,8.30
2023-03-12T13:41:03.410Z,8.40
2023-03-12T13:43:39.150Z,8.50
2023-03-12T13:46:20.983Z,8.70
2023-03-12T13:48:49.020Z,8.80
2023-03-12T13:51:20.053Z,9.00
2023-03-12T13:53:53.341Z,9.10
2023-03-12T13:56:26.257Z,9.10
2023-03-12T13:59:06.091Z,9.10
2023-03-12T14:01:40.910Z,9.10
2023-03-12T14:04:28.959Z,9.20
2023-03-12T14:07:12.033Z,9.10
2023-03-12T14:10:16.402Z,9.20
2023-03-12T14:12:53.808Z,9.20
2023-03-12T14:15:51.482Z,9.20
2023-03-12T14:18:27.934Z,9.40
2023-03-12T14:20:58.771Z,9.40
2023-03-12T14:23:29.991Z,9.50
2023-03-12T14:26:02.334Z,9.50
2023-03-12T14:28:32.707Z,9.40
2023-03-12T14:31:04.688Z,9.40
2023-03-12T14:33:35.824Z,9.40
2023-03-12T14:36:12.215Z,9.30
2023-03-12T14:38:44.589Z,9.30
2023-03-12T14:41:19.862Z,9.20
2023-03-12T14:43:46.567Z,9.20
2023-03-12T14:46:18.845Z,9.20
2023-03-12T14:48:49.279Z,9.30
2023-03-12T14:51:28.209Z,9.30
2023-03-12T14:53:55.888Z,9.20
2023-03-12T14:56:30.210Z,9.20
2023-03-12T14:58:58.850Z,9.20
2023-03-12T15:01:31.852Z,9.20
2023-03-12T15:04:01.541Z,9.20
2023-03-12T15:06:46.843Z,9.20
2023-03-12T15:09:19.579Z,9.20
2023-03-12T15:11:55.524Z,9.20
2023-03-12T15:14:24.704Z,9.20
2023-03-12T15:16:52.521Z,9.20
2023-03-12T15:19:26.289Z,9.20
2023-03-12T15:21:53.969Z,9.20
2023-03-12T15:24:21.326Z,9.30
2023-03-12T15:26:51.370Z,9.30
2023-03-12T15:29:28.073Z,9.30
2023-03-12T15:32:00.239Z,9.30
2023-03-12T15:34:34.975Z,9.40
2023-03-12T15:37:18.843Z,9.40
2023-03-12T15:39:49.540Z,9.50
2023-03-12T15:42:19.869Z,9.60
2023-03-12T15:44:56.582Z,9.60
2023-03-12T15:47:32.669Z,9.60
2023-03-12T15:50:25.667Z,9.60
2023-03-12T15:53:05.921Z,9.60
2023-03-12T15:55:35.095Z,9.60
2023-03-12T15:58:02.868Z,9.60
2023-03-12T16:00:44.008Z,9.60
2023-03-12T16:03:21.774Z,9.50
2023-03-12T16:05:50.397Z,9.60
2023-03-12T16:08:23.261Z,9.60
2023-03-12T16:10:50.829Z,9.50
2023-03-12T16:13:21.141Z,9.50
2023-03-12T16:15:51.408Z,9.50
2023-03-12T16:18:20.825Z,9.50
2023-03-12T16:20:48.748Z,9.50
2023-03-12T16:23:17.706Z,9.50
2023-03-12T16:25:56.308Z,9.50
2023-03-12T16:28:23.700Z,9.50
2023-03-12T16:30:51.054Z,9.50
2023-03-12T16:33:21.002Z,9.50
2023-03-12T16:35:48.426Z,9.50
2023-03-12T16:38:15.156Z,9.50
2023-03-12T16:40:48.562Z,9.50
2023-03-12T16:43:19.535Z,9.50
2023-03-12T16:45:49.120Z,9.50
2023-03-12T16:48:21.498Z,9.50
2023-03-12T16:50:51.475Z,9.50
2023-03-12T16:53:19.085Z,9.50
2023-03-12T16:55:53.130Z,9.50
2023-03-12T16:58:23.115Z,9.40
2023-03-12T17:00:50.772Z,9.40
2023-03-12T17:03:36.056Z,9.40
2023-03-12T17:06:04.456Z,9.40
2023-03-12T17:08:31.138Z,9.40
2023-03-12T17:10:59.055Z,9.30
2023-03-12T17:13:27.947Z,9.40
2023-03-12T17:15:55.722Z,9.30
2023-03-12T17:18:22.621Z,9.30
2023-03-12T17:20:51.481Z,9.20
2023-03-12T17:23:18.241Z,9.20
2023-03-12T17:25:45.234Z,9.20
2023-03-12T17:28:14.256Z,9.20
2023-03-12T17:30:40.984Z,9.20
2023-03-12T17:33:12.118Z,9.10
2023-03-12T17:35:39.652Z,9.10
2023-03-12T17:38:06.305Z,9.10
2023-03-12T17:40:33.787Z,9.10
2023-03-12T17:43:00.283Z,9.10
2023-03-12T17:45:27.029Z,9.30
2023-03-12T17:47:53.671Z,9.30
2023-03-12T17:50:20.321Z,9.40
2023-03-12T17:52:47.048Z,9.30
2023-03-12T17:55:13.768Z,9.30
2023-03-12T17:57:40.664Z,9.30
2023-03-12T18:00:12.580Z,9.30
2023-03-12T18:02:40.735Z,9.30
2023-03-12T18:05:09.103Z,9.50
2023-03-12T18:07:35.958Z,9.50
2023-03-12T18:10:03.875Z,9.70
2023-03-12T18:12:30.577Z,10.30
2023-03-12T18:14:57.243Z,10.40
2023-03-12T18:17:23.831Z,10.50
2023-03-12T18:19:50.474Z,10.70
2023-03-12T18:22:19.529Z,10.80
2023-03-12T18:24:46.308Z,10.80
2023-03-12T18:27:12.969Z,10.90
2023-03-12T18:29:41.035Z,11.00
2023-03-12T18:32:08.006Z,11.10
2023-03-12T18:34:34.812Z,11.00
2023-03-12T18:37:01.395Z,11.10
2023-03-12T18:39:27.934Z,11.10
2023-03-12T18:41:55.532Z,11.00
2023-03-12T18:44:22.284Z,11.10
2023-03-12T18:46:50.756Z,11.10
2023-03-12T18:49:18.122Z,11.10
2023-03-12T18:51:44.799Z,11.10
2023-03-12T18:54:12.669Z,11.00
2023-03-12T18:56:40.729Z,11.00
2023-03-12T18:59:09.600Z,11.20
2023-03-12T19:01:37.250Z,11.10
2023-03-12T19:04:04.416Z,11.10
2023-03-12T19:06:37.934Z,11.00
2023-03-12T19:09:16.458Z,10.90
2023-03-12T19:11:43.471Z,10.90
2023-03-12T19:14:10.314Z,10.80
2023-03-12T19:16:37.089Z,10.90
2023-03-12T19:19:03.776Z,11.10
2023-03-12T19:21:30.439Z,11.00
2023-03-12T19:23:57.914Z,10.80
2023-03-12T19:26:24.635Z,10.80
2023-03-12T19:28:51.177Z,10.80
2023-03-12T19:31:17.809Z,10.90
2023-03-12T19:33:44.716Z,10.90
2023-03-12T19:36:11.396Z,10.80
2023-03-12T19:38:38.127Z,10.70
2023-03-12T19:41:08.529Z,10.60
2023-03-12T19:43:36.788Z,10.60
2023-03-12T19:46:04.084Z,10.60
2023-03-12T19:48:30.827Z,10.70
2023-03-12T19:50:57.434Z,10.60
2023-03-12T19:53:24.734Z,10.50
2023-03-12T19:55:51.647Z,10.60
2023-03-12T19:58:18.359Z,10.60
2023-03-12T20:00:45.338Z,10.60
2023-03-12T20:03:12.080Z,10.60
2023-03-12T20:05:42.027Z,10.60
2023-03-12T20:08:08.571Z,10.60
2023-03-12T20:10:35.491Z,10.50
2023-03-12T20:13:02.096Z,10.50
2023-03-12T20:15:28.757Z,10.60
2023-03-12T20:17:58.164Z,10.60
2023-03-12T20:20:25.351Z,10.50
2023-03-12T20:22:51.970Z,10.60
2023-03-12T20:25:18.589Z,10.50
2023-03-12T20:27:45.995Z,10.50
2023-03-12T20:30:13.597Z,10.50
2023-03-12T20:32:40.893Z,10.50
2023-03-12T20:35:07.757Z,10.40
2023-03-12T20:37:34.409Z,10.30
2023-03-12T20:40:01.069Z,10.20
2023-03-12T20:42:27.724Z,10.20
2023-03-12T20:44:54.300Z,10.20
2023-03-12T20:47:20.987Z,10.30
2023-03-12T20:49:47.496Z,10.30
2023-03-12T20:52:14.116Z,10.40
2023-03-12T20:54:40.880Z,10.50
2023-03-12T20:57:07.432Z,10.50
2023-03-12T20:59:34.349Z,10.50
2023-03-12T21:02:01.057Z,10.40
2023-03-12T21:04:27.716Z,10.40
2023-03-12T21:06:55.757Z,10.50
2023-03-12T21:09:23.237Z,10.60
2023-03-12T21:11:50.340Z,10.40
2023-03-12T21:14:17.050Z,10.40
2023-03-12T21:16:43.722Z,10.40
2023-03-12T21:19:10.382Z,10.40
2023-03-12T21:21:37.865Z,10.40
2023-03-12T21:24:04.930Z,10.40
2023-03-12T21:26:31.539Z,10.50
2023-03-12T21:28:58.167Z,10.40
2023-03-12T21:31:26.910Z,10.40
2023-03-12T21:33:59.573Z,10.40
2023-03-12T21:36:26.509Z,10.40
2023-03-12T21:38:53.358Z,10.40
2023-03-12T21:41:20.741Z,10.40
2023-03-12T21:43:48.112Z,10.40
2023-03-12T21:46:20.434Z,10.30
2023-03-12T21:48:47.780Z,10.40
2023-03-12T21:51:16.150Z,10.30
2023-03-12T21:53:43.124Z,10.30
2023-03-12T21:56:10.172Z,10.20
2023-03-12T21:58:37.347Z,10.20
2023-03-12T22:01:12.742Z,10.10
2023-03-12T22:03:40.831Z,10.00
2023-03-12T22:06:08.185Z,10.10
2023-03-12T22:08:35.220Z,10.20
2023-03-12T22:11:02.378Z,10.10
2023-03-12T22:13:29.092Z,10.10
2023-03-12T22:16:00.597Z,10.10
2023-03-12T22:18:28.492Z,10.10
2023-03-12T22:20:57.584Z,10.10
2023-03-12T22:23:25.004Z,10.20
2023-03-12T22:25:51.944Z,10.20
2023-03-12T22:28:19.101Z,10.30
2023-03-12T22:30:45.889Z,10.30
2023-03-12T22:33:12.803Z,10.20
2023-03-12T22:35:46.403Z,10.10
2023-03-12T22:38:13.633Z,10.10
2023-03-12T22:40:40.334Z,10.20
2023-03-12T22:43:07.008Z,10.20
2023-03-12T22:45:34.108Z,10.10
2023-03-12T22:48:00.773Z,10.00
2023-03-12T22:50:27.399Z,10.00
2023-03-12T22:52:53.959Z,10.00
2023-03-12T22:55:20.528Z,9.90
2023-03-12T22:57:47.088Z,9.90
2023-03-12T23:00:16.378Z,9.90
2023-03-12T23:02:42.924Z,9.90
2023-03-12T23:05:10.224Z,9.80
2023-03-12T23:07:37.015Z,9.70
2023-03-12T23:10:04.489Z,9.70
2023-03-12T23:12:31.558Z,9.60
2023-03-12T23:14:58.096Z,9.60
2023-03-12T23:17:24.910Z,9.50
2023-03-12T23:19:51.489Z,9.60
2023-03-12T23:22:18.105Z,9.50
2023-03-12T23:24:44.675Z,9.60
2023-03-12T23:27:11.503Z,9.50
2023-03-12T23:29:38.266Z,9.50
2023-03-12T23:32:05.331Z,9.50
2023-03-12T23:34:34.326Z,9.60
2023-03-12T23:37:00.868Z,9.50
2023-03-12T23:39:30.000Z,9.60
2023-03-12T23:41:57.574Z,9.70
2023-03-12T23:44:24.674Z,9.80
2023-03-12T23:46:51.230Z,9.80
2023-03-12T23:49:17.819Z,9.90
2023-03-12T23:51:45.103Z,9.90
2023-03-12T23:54:11.722Z,10.00
2023-03-12T23:56:40.193Z,9.90
2023-03-12T23:59:08.837Z,10.00
